Time;durP1;ratioP1;P1;durP2;ratioP2;P2;SDS_P1;SDS_P2;PMS_P1;PMS_P2;Temp;Humidity;BMP_temperature;BMP_pressure;BME280_temperature;BME280_humidity;BME280_pressure;Samples;Min_cycle;Max_cycle;Signal;HPM_P1;HPM_P2
2021/10/17 00:00:54;;;;;;;9.10;8.20;;;;;;;17.93;45.14;100020.52;1798480;78;21038;-60
2021/10/17 00:03:20;;;;;;;10.00;8.95;;;;;;;17.94;45.18;100022.16;1797866;78;21008;-60
2021/10/17 00:05:47;;;;;;;8.75;7.60;;;;;;;17.93;45.17;100023.20;1804671;79;21010;-60
2021/10/17 00:08:14;;;;;;;9.75;7.95;;;;;;;17.92;45.13;100022.88;1811383;78;20976;-59
2021/10/17 00:10:40;;;;;;;9.30;8.28;;;;;;;17.91;45.17;100021.25;1818422;78;21285;-60
2021/10/17 00:13:08;;;;;;;9.33;7.83;;;;;;;17.90;45.15;100019.58;1816460;78;22092;-63
2021/10/17 00:15:35;;;;;;;8.93;8.03;;;;;;;17.89;45.21;100025.48;1826244;78;21078;-59
2021/10/17 00:18:03;;;;;;;13.15;8.10;;;;;;;17.88;45.18;100019.26;1812697;77;21019;-60
2021/10/17 00:20:29;;;;;;;9.65;8.30;;;;;;;17.87;45.18;100021.66;1774567;78;21110;-60
2021/10/17 00:22:57;;;;;;;9.05;8.15;;;;;;;17.87;45.19;100022.18;1802168;79;21132;-60
2021/10/17 00:25:23;;;;;;;9.43;7.83;;;;;;;17.87;45.18;100018.15;1831854;77;21569;-59
2021/10/17 00:27:49;;;;;;;8.13;7.33;;;;;;;17.86;45.18;100024.02;1823843;77;20943;-60
2021/10/17 00:30:20;;;;;;;8.85;7.90;;;;;;;17.85;45.23;100024.25;1806130;77;21014;-60
2021/10/17 00:32:46;;;;;;;9.13;8.08;;;;;;;17.84;45.19;100020.72;1845308;77;21529;-60
2021/10/17 00:35:13;;;;;;;8.15;7.20;;;;;;;17.82;45.19;100022.75;1827429;77;21053;-60
2021/10/17 00:37:41;;;;;;;8.90;7.90;;;;;;;17.82;45.26;100025.44;1844150;77;21059;-60
2021/10/17 00:40:13;;;;;;;8.53;7.62;;;;;;;17.81;45.20;100024.30;1843019;77;21059;-60
2021/10/17 00:42:40;;;;;;;9.38;8.43;;;;;;;17.80;45.25;100022.14;1832177;77;21057;-60
2021/10/17 00:45:10;;;;;;;8.20;7.35;;;;;;;17.79;45.22;100017.81;1808851;77;21026;-60
2021/10/17 00:47:38;;;;;;;9.65;8.25;;;;;;;17.78;45.23;100011.30;1815001;77;21784;-61
2021/10/17 00:50:06;;;;;;;8.55;7.75;;;;;;;17.76;45.31;100015.53;1813736;77;21018;-60
2021/10/17 00:52:33;;;;;;;9.40;7.65;;;;;;;17.76;45.24;100012.03;1841111;77;21107;-59
2021/10/17 00:54:59;;;;;;;9.25;8.28;;;;;;;17.76;45.28;100013.37;1824386;77;21022;-59
2021/10/17 00:57:25;;;;;;;8.63;7.60;;;;;;;17.75;45.30;100011.70;1837363;77;21029;-60
2021/10/17 00:59:52;;;;;;;8.38;7.58;;;;;;;17.75;45.32;100011.70;1807288;77;21188;-60
2021/10/17 01:02:20;;;;;;;9.20;8.30;;;;;;;17.74;45.35;100007.38;1811384;77;20989;-60
2021/10/17 01:04:46;;;;;;;8.80;7.83;;;;;;;17.73;45.27;100015.97;1812975;77;21048;-59
2021/10/17 01:07:13;;;;;;;9.25;8.25;;;;;;;17.71;45.33;100012.63;1840306;77;21735;-59
2021/10/17 01:09:40;;;;;;;9.00;8.10;;;;;;;17.71;45.35;100012.63;1832649;77;21477;-61
2021/10/17 01:12:09;;;;;;;9.25;7.58;;;;;;;17.70;45.32;100015.03;1830974;77;21093;-61
2021/10/17 01:14:37;;;;;;;8.93;8.03;;;;;;;17.69;45.40;100014.70;1837084;77;21434;-60
2021/10/17 01:17:05;;;;;;;8.88;7.72;;;;;;;17.68;45.29;100011.73;1823776;77;21013;-59
2021/10/17 01:19:32;;;;;;;8.55;7.55;;;;;;;17.67;45.37;100011.41;1845355;77;21032;-59
2021/10/17 01:22:03;;;;;;;8.00;7.28;;;;;;;17.67;45.33;100014.09;1849913;77;21023;-60
2021/10/17 01:24:30;;;;;;;8.70;7.85;;;;;;;17.65;45.35;100010.78;1828697;77;21083;-59
2021/10/17 01:26:57;;;;;;;8.00;7.00;;;;;;;17.63;45.31;100008.30;1808248;77;21056;-59
2021/10/17 01:29:23;;;;;;;8.18;7.37;;;;;;;17.63;45.31;100012.86;1824777;77;21049;-59
2021/10/17 01:31:54;;;;;;;8.60;7.70;;;;;;;17.62;45.32;100012.56;1814659;77;21032;-60
2021/10/17 01:34:21;;;;;;;8.50;7.60;;;;;;;17.61;45.38;100009.55;1826759;77;20964;-60
2021/10/17 01:36:47;;;;;;;8.58;7.65;;;;;;;17.60;45.41;100006.58;1822064;77;21185;-59
2021/10/17 01:39:17;;;;;;;9.88;7.65;;;;;;;17.60;45.33;100011.95;1836851;77;21569;-60
2021/10/17 01:41:43;;;;;;;8.80;7.35;;;;;;;17.60;45.39;100013.29;1834903;77;20998;-60
2021/10/17 01:44:18;;;;;;;7.83;7.03;;;;;;;17.59;45.38;100018.34;1835485;77;20997;-60
2021/10/17 01:46:49;;;;;;;8.23;6.92;;;;;;;17.57;45.39;100011.83;1819663;77;21501;-60
2021/10/17 01:49:16;;;;;;;7.97;6.97;;;;;;;17.56;45.40;100011.53;1814316;77;21191;-60
2021/10/17 01:51:44;;;;;;;8.15;7.30;;;;;;;17.54;45.42;100013.59;1807975;77;21003;-60
2021/10/17 01:54:10;;;;;;;7.92;7.12;;;;;;;17.54;45.42;100012.75;1776768;79;21620;-60
2021/10/17 01:56:38;;;;;;;7.10;6.40;;;;;;;17.53;45.38;100009.77;1756047;80;21084;-60
2021/10/17 01:59:05;;;;;;;9.78;8.75;;;;;;;17.52;45.37;100015.66;1770366;80;21081;-59
2021/10/17 02:01:33;;;;;;;8.78;7.37;;;;;;;17.51;45.36;100016.69;1769789;80;21120;-60
2021/10/17 02:04:01;;;;;;;7.70;6.90;;;;;;;17.51;45.36;100019.89;1776734;80;21007;-60
2021/10/17 02:06:29;;;;;;;7.95;7.15;;;;;;;17.48;45.39;100019.28;1750986;80;21762;-60
2021/10/17 02:08:57;;;;;;;9.28;7.70;;;;;;;17.48;45.46;100020.63;1776306;80;21487;-60
2021/10/17 02:11:24;;;;;;;8.13;7.33;;;;;;;17.47;45.42;100028.35;1846499;77;20978;-60
2021/10/17 02:13:51;;;;;;;7.92;7.12;;;;;;;17.45;45.42;100021.02;1833642;77;21841;-59
2021/10/17 02:16:17;;;;;;;8.55;7.58;;;;;;;17.45;45.49;100027.73;1833722;77;21486;-59
2021/10/17 02:18:45;;;;;;;8.70;7.40;;;;;;;17.45;45.47;100030.95;1817236;77;21014;-59
2021/10/17 02:21:12;;;;;;;8.03;6.90;;;;;;;17.43;45.51;100035.17;1821257;77;21458;-60
2021/10/17 02:23:39;;;;;;;8.00;7.20;;;;;;;17.43;45.48;100030.33;1819862;77;21545;-60
2021/10/17 02:26:07;;;;;;;8.95;7.67;;;;;;;17.42;45.48;100028.16;1830296;76;21092;-59
2021/10/17 02:28:36;;;;;;;8.00;7.17;;;;;;;17.41;45.48;100032.39;1829088;77;21041;-60
2021/10/17 02:31:02;;;;;;;8.90;7.28;;;;;;;17.41;45.49;100034.55;1837241;77;21569;-59
2021/10/17 02:33:31;;;;;;;8.45;7.25;;;;;;;17.39;45.49;100032.59;1819580;77;21108;-60
2021/10/17 02:36:02;;;;;;;8.35;7.53;;;;;;;17.39;45.46;100037.97;1824580;77;21544;-60
2021/10/17 02:38:31;;;;;;;8.33;7.35;;;;;;;17.38;45.50;100038.98;1844786;77;21038;-60
2021/10/17 02:40:57;;;;;;;7.85;7.05;;;;;;;17.37;45.49;100040.03;1802452;77;21592;-60
2021/10/17 02:43:24;;;;;;;8.03;7.15;;;;;;;17.37;45.48;100036.52;1835526;77;21566;-60
2021/10/17 02:45:52;;;;;;;7.97;6.47;;;;;;;17.36;45.48;100037.55;1817972;77;21056;-59
2021/10/17 02:48:20;;;;;;;7.80;6.90;;;;;;;17.34;45.58;100029.69;1812087;77;21056;-60
2021/10/17 02:50:47;;;;;;;7.45;6.33;;;;;;;17.35;45.56;100031.35;1839554;76;21116;-60
2021/10/17 02:53:13;;;;;;;7.15;6.40;;;;;;;17.33;45.52;100029.39;1836309;77;21469;-60
2021/10/17 02:55:39;;;;;;;7.20;6.50;;;;;;;17.32;45.54;100029.06;1819267;77;21045;-60
2021/10/17 02:58:08;;;;;;;8.78;7.28;;;;;;;17.32;45.55;100030.41;1825269;77;21962;-61
2021/10/17 03:00:35;;;;;;;8.28;7.28;;;;;;;17.30;45.55;100033.81;1847358;77;21554;-60
2021/10/17 03:03:04;;;;;;;8.70;7.12;;;;;;;17.29;45.54;100028.16;1845428;77;21498;-62
2021/10/17 03:05:32;;;;;;;8.48;7.15;;;;;;;17.29;45.56;100028.16;1828159;77;21045;-59
2021/10/17 03:08:00;;;;;;;8.33;7.17;;;;;;;17.28;45.58;100027.83;1837289;77;21006;-60
2021/10/17 03:10:27;;;;;;;9.03;6.15;;;;;;;17.27;45.63;100033.72;1810103;77;21037;-60
2021/10/17 03:12:53;;;;;;;7.12;6.28;;;;;;;17.27;45.64;100037.75;1811390;77;21060;-60
2021/10/17 03:15:21;;;;;;;7.40;6.65;;;;;;;17.27;45.65;100043.64;1814073;77;21119;-59
2021/10/17 03:17:49;;;;;;;7.10;6.40;;;;;;;17.26;45.69;100043.31;1809150;77;21041;-59
2021/10/17 03:20:15;;;;;;;7.33;6.28;;;;;;;17.25;45.61;100039.81;1818440;77;21013;-60
2021/10/17 03:22:44;;;;;;;8.05;6.55;;;;;;;17.23;45.60;100040.53;1839067;77;21093;-59
2021/10/17 03:25:10;;;;;;;7.12;6.42;;;;;;;17.24;45.60;100044.04;1830699;77;21273;-59
2021/10/17 03:27:37;;;;;;;8.68;6.47;;;;;;;17.22;45.61;100037.52;1818115;78;21654;-59
2021/10/17 03:30:05;;;;;;;7.65;6.42;;;;;;;17.22;45.67;100039.39;1792236;78;21046;-59
2021/10/17 03:32:32;;;;;;;7.67;6.92;;;;;;;17.22;45.65;100038.87;1797292;79;21372;-59
2021/10/17 03:35:03;;;;;;;7.78;6.72;;;;;;;17.22;45.65;100043.42;1791076;78;21075;-60
2021/10/17 03:37:29;;;;;;;7.70;6.90;;;;;;;17.21;45.63;100039.91;1791477;78;22154;-60
2021/10/17 03:39:57;;;;;;;8.13;5.97;;;;;;;17.20;45.70;100037.43;1800830;78;21254;-60
2021/10/17 03:42:25;;;;;;;7.80;6.45;;;;;;;17.18;45.62;100038.97;1795666;77;21008;-59
2021/10/17 03:44:55;;;;;;;8.93;7.37;;;;;;;17.18;45.68;100033.59;1798028;79;21509;-59
2021/10/17 03:47:23;;;;;;;6.70;6.00;;;;;;;17.18;45.70;100036.28;1810800;78;21002;-60
2021/10/17 03:49:52;;;;;;;7.28;6.58;;;;;;;17.17;45.75;100031.11;1799271;78;21100;-59
2021/10/17 03:52:21;;;;;;;7.08;6.17;;;;;;;17.17;45.64;100036.48;1808268;78;21143;-60
2021/10/17 03:54:47;;;;;;;8.28;6.95;;;;;;;17.16;45.70;100039.69;1783884;79;21029;-60
2021/10/17 03:57:13;;;;;;;8.00;6.70;;;;;;;17.17;45.71;100039.16;1812170;77;21011;-59
2021/10/17 03:59:40;;;;;;;7.75;6.95;;;;;;;17.16;45.72;100042.89;1789815;77;21552;-58
2021/10/17 04:02:07;;;;;;;7.65;6.85;;;;;;;17.15;45.73;100037.20;1803700;79;21021;-60
2021/10/17 04:04:34;;;;;;;7.22;6.25;;;;;;;17.14;45.71;100042.27;1791790;78;21131;-60
2021/10/17 04:07:01;;;;;;;7.42;6.42;;;;;;;17.15;45.71;100041.23;1803510;79;21009;-60
2021/10/17 04:09:30;;;;;;;8.38;6.83;;;;;;;17.13;45.67;100041.42;1797565;79;21447;-60
2021/10/17 04:11:56;;;;;;;7.30;6.53;;;;;;;17.13;45.70;100041.95;1812796;79;21084;-60
2021/10/17 04:14:23;;;;;;;7.78;6.37;;;;;;;17.13;45.67;100045.98;1802144;79;21033;-60
2021/10/17 04:16:51;;;;;;;7.12;6.15;;;;;;;17.12;45.70;100049.19;1804825;78;21128;-60
2021/10/17 04:19:21;;;;;;;7.03;6.33;;;;;;;17.11;45.68;100047.52;1797551;78;21068;-60
2021/10/17 04:21:48;;;;;;;8.03;7.00;;;;;;;17.10;45.67;100049.38;1809198;78;21001;-59
2021/10/17 04:24:16;;;;;;;6.85;6.15;;;;;;;17.10;45.68;100047.22;1811856;78;21690;-61
2021/10/17 04:26:44;;;;;;;6.78;5.97;;;;;;;17.09;45.70;100050.42;1834065;77;21068;-60
2021/10/17 04:29:12;;;;;;;6.95;6.15;;;;;;;17.09;45.72;100055.80;1823113;77;21181;-59
2021/10/17 04:31:38;;;;;;;7.75;6.33;;;;;;;17.09;45.69;100056.29;1820909;77;21073;-60
2021/10/17 04:34:05;;;;;;;7.60;6.80;;;;;;;17.09;45.69;100057.63;1845487;77;21450;-59
2021/10/17 04:36:31;;;;;;;6.58;5.92;;;;;;;17.07;45.71;100057.86;1826374;77;21709;-60
2021/10/17 04:38:58;;;;;;;7.15;5.80;;;;;;;17.08;45.76;100057.33;1845017;77;21490;-59
2021/10/17 04:41:25;;;;;;;7.72;6.67;;;;;;;17.08;45.71;100058.16;1843637;77;21045;-59
2021/10/17 04:43:52;;;;;;;6.40;5.78;;;;;;;17.07;45.69;100057.86;1843464;77;21011;-61
2021/10/17 04:46:18;;;;;;;8.08;6.58;;;;;;;17.06;45.67;100065.58;1836657;77;22102;-60
2021/10/17 04:48:45;;;;;;;7.05;5.87;;;;;;;17.06;45.70;100061.56;1828911;77;21085;-61
2021/10/17 04:51:11;;;;;;;7.12;6.42;;;;;;;17.06;45.74;100063.42;1809681;77;21270;-60
2021/10/17 04:53:37;;;;;;;7.75;6.25;;;;;;;17.05;45.76;100065.78;1818388;77;21520;-59
2021/10/17 04:56:05;;;;;;;6.92;6.03;;;;;;;17.05;45.75;100067.94;1835165;77;20983;-59
2021/10/17 04:58:33;;;;;;;7.47;6.55;;;;;;;17.05;45.72;100065.25;1819320;77;21056;-59
2021/10/17 05:01:02;;;;;;;6.00;5.33;;;;;;;17.04;45.71;100068.98;1808096;77;21018;-60
2021/10/17 05:03:29;;;;;;;6.22;5.62;;;;;;;17.04;45.72;100069.51;1845319;77;21001;-59
2021/10/17 05:05:56;;;;;;;7.30;6.60;;;;;;;17.05;45.80;100067.13;1827591;76;21118;-60
2021/10/17 05:08:22;;;;;;;6.30;5.62;;;;;;;17.04;45.72;100066.83;1819037;77;21523;-60
2021/10/17 05:10:50;;;;;;;7.40;6.60;;;;;;;17.04;45.75;100070.85;1824585;77;22119;-59
2021/10/17 05:13:19;;;;;;;7.45;6.67;;;;;;;17.04;45.78;100070.33;1837369;77;21014;-60
2021/10/17 05:15:47;;;;;;;7.10;6.00;;;;;;;17.04;45.76;100076.22;1807876;77;21424;-60
2021/10/17 05:18:14;;;;;;;6.00;5.20;;;;;;;17.03;45.72;100074.03;1824479;77;21135;-59
2021/10/17 05:20:42;;;;;;;5.83;5.12;;;;;;;17.03;45.72;100074.55;1844766;77;21549;-60
2021/10/17 05:23:11;;;;;;;6.72;5.62;;;;;;;17.03;45.72;100072.69;1827072;77;21033;-59
2021/10/17 05:25:37;;;;;;;6.92;5.80;;;;;;;17.03;45.70;100072.69;1823837;77;21744;-59
2021/10/17 05:28:04;;;;;;;7.40;6.10;;;;;;;17.04;45.72;100078.91;1830867;77;21556;-60
2021/10/17 05:30:32;;;;;;;6.75;5.80;;;;;;;17.03;45.72;100076.71;1821895;77;21166;-61
2021/10/17 05:32:59;;;;;;;6.97;5.65;;;;;;;17.04;45.72;100079.72;1838574;77;21049;-60
2021/10/17 05:35:26;;;;;;;6.10;5.53;;;;;;;17.05;45.70;100081.36;1846054;77;21513;-60
2021/10/17 05:37:52;;;;;;;7.03;5.95;;;;;;;17.05;45.70;100081.88;1846344;77;21018;-62
2021/10/17 05:40:19;;;;;;;7.00;6.30;;;;;;;17.05;45.68;100081.36;1844684;77;21001;-60
2021/10/17 05:42:46;;;;;;;8.03;6.33;;;;;;;17.06;45.69;100091.61;1846140;77;21120;-60
2021/10/17 05:45:12;;;;;;;8.45;5.87;;;;;;;17.06;45.65;100096.45;1843530;77;21573;-60
2021/10/17 05:47:39;;;;;;;7.03;5.50;;;;;;;17.06;45.68;100091.08;1805783;77;21478;-60
2021/10/17 05:50:08;;;;;;;7.05;5.53;;;;;;;17.07;45.67;100095.92;1808266;77;21529;-60
2021/10/17 05:52:35;;;;;;;6.90;5.97;;;;;;;17.06;45.70;100096.45;1811674;77;21529;-60
2021/10/17 05:55:02;;;;;;;7.03;5.83;;;;;;;17.07;45.68;100095.44;1832583;77;21097;-60
2021/10/17 05:57:30;;;;;;;7.33;6.45;;;;;;;17.07;45.67;100098.61;1826768;77;20994;-60
2021/10/17 05:59:56;;;;;;;6.05;5.45;;;;;;;17.07;45.64;100092.75;1812875;77;22035;-60
2021/10/17 06:02:23;;;;;;;7.00;5.92;;;;;;;17.09;45.61;100096.06;1841372;77;21077;-60
2021/10/17 06:04:51;;;;;;;6.28;5.47;;;;;;;17.10;45.61;100093.67;1832659;77;21094;-60
2021/10/17 06:07:21;;;;;;;6.92;5.60;;;;;;;17.10;45.60;100089.64;1835349;77;22042;-61
2021/10/17 06:09:47;;;;;;;7.05;5.85;;;;;;;17.13;45.60;100094.30;1812711;77;21620;-60
2021/10/17 06:12:15;;;;;;;6.62;5.80;;;;;;;17.16;45.59;100099.27;1821855;76;20981;-59
2021/10/17 06:14:42;;;;;;;6.50;5.33;;;;;;;17.16;45.58;100096.06;1831593;77;21038;-59
2021/10/17 06:17:09;;;;;;;6.17;5.47;;;;;;;17.18;45.55;100099.37;1809649;77;21537;-60
2021/10/17 06:19:35;;;;;;;5.65;5.05;;;;;;;17.19;45.51;100099.70;1823610;77;21538;-59
2021/10/17 06:22:06;;;;;;;6.08;5.25;;;;;;;17.20;45.46;100101.34;1806823;77;21009;-61
2021/10/17 06:24:34;;;;;;;5.87;5.10;;;;;;;17.22;45.45;100101.14;1827098;77;21002;-60
2021/10/17 06:27:01;;;;;;;6.65;6.05;;;;;;;17.23;45.44;100104.97;1815378;77;21559;-64
2021/10/17 06:29:27;;;;;;;6.05;5.47;;;;;;;17.25;45.39;100108.80;1818831;78;21528;-61
2021/10/17 06:31:54;;;;;;;5.95;5.35;;;;;;;17.25;45.40;100110.14;1831728;77;21686;-61
2021/10/17 06:34:21;;;;;;;6.37;5.28;;;;;;;17.25;45.38;100108.80;1836521;77;21002;-59
2021/10/17 06:36:48;;;;;;;6.97;6.28;;;;;;;17.26;45.38;100110.44;1836407;77;21030;-60
2021/10/17 06:39:14;;;;;;;6.40;5.80;;;;;;;17.28;45.32;100110.53;1824729;78;21059;-60
2021/10/17 06:41:42;;;;;;;7.75;6.12;;;;;;;17.28;45.35;100104.34;1817175;78;21010;-61
2021/10/17 06:44:10;;;;;;;6.20;5.33;;;;;;;17.30;45.31;100107.66;1804617;78;21213;-62
2021/10/17 06:46:37;;;;;;;5.58;4.97;;;;;;;17.29;45.30;100107.36;1777361;78;21039;-61
2021/10/17 06:49:03;;;;;;;5.97;5.37;;;;;;;17.31;45.28;100105.30;1827362;78;21072;-60
2021/10/17 06:51:30;;;;;;;6.55;5.80;;;;;;;17.31;45.25;100113.36;1817266;78;21064;-64
2021/10/17 06:53:57;;;;;;;5.30;4.67;;;;;;;17.32;45.26;100103.44;1808797;77;21523;-62
2021/10/17 06:56:23;;;;;;;6.05;5.40;;;;;;;17.32;45.23;100109.62;1847042;77;22000;-61
2021/10/17 06:58:51;;;;;;;5.60;4.95;;;;;;;17.33;45.21;100116.66;1834494;77;21042;-62
2021/10/17 07:01:18;;;;;;;6.45;5.75;;;;;;;17.35;45.20;100115.13;1835622;77;21020;-61
2021/10/17 07:03:46;;;;;;;6.37;5.70;;;;;;;17.36;45.21;100118.92;1827612;77;21005;-61
2021/10/17 07:06:14;;;;;;;6.00;5.40;;;;;;;17.37;45.19;100119.25;1824663;77;20978;-62
2021/10/17 07:08:43;;;;;;;6.62;5.83;;;;;;;17.39;45.19;100123.90;1833420;77;21148;-61
2021/10/17 07:11:11;;;;;;;6.17;5.47;;;;;;;17.40;45.19;100119.34;1821912;77;21195;-60
2021/10/17 07:13:54;;;;;;;;;;;;;;;17.41;45.18;100119.15;1820905;77;21013;-61
2021/10/17 07:16:22;;;;;;;7.25;5.58;;;;;;;17.41;45.18;100111.62;1834589;78;20151;-61
2021/10/17 07:18:48;;;;;;;6.33;5.70;;;;;;;17.40;45.23;100113.98;1826185;78;21381;-63
2021/10/17 07:21:15;;;;;;;6.50;5.90;;;;;;;17.42;45.22;100115.45;1828925;77;21945;-60
2021/10/17 07:23:42;;;;;;;6.85;5.00;;;;;;;17.45;45.19;100112.86;1786393;77;21513;-60
2021/10/17 07:26:09;;;;;;;6.78;5.22;;;;;;;17.47;45.19;100110.27;1807601;77;21072;-60
2021/10/17 07:28:35;;;;;;;6.72;5.45;;;;;;;17.51;45.11;100113.91;1831076;77;21319;-60
2021/10/17 07:31:06;;;;;;;5.53;5.03;;;;;;;17.53;45.10;100115.87;1817325;78;21037;-62
2021/10/17 07:33:43;;;;;;;6.00;5.40;;;;;;;17.55;45.10;100115.96;1818474;78;21137;-61
2021/10/17 07:36:11;;;;;;;5.75;5.20;;;;;;;17.59;45.06;100112.36;1824545;78;21112;-60
2021/10/17 07:38:38;;;;;;;5.95;5.00;;;;;;;17.61;45.00;100119.17;1821563;77;20986;-60
2021/10/17 07:41:05;;;;;;;5.33;4.83;;;;;;;17.64;44.96;100117.95;1830642;78;21494;-62
2021/10/17 07:43:33;;;;;;;5.35;4.80;;;;;;;17.66;44.96;100117.23;1818655;78;21509;-60
2021/10/17 07:46:02;;;;;;;7.20;5.62;;;;;;;17.69;44.92;100114.11;1811087;77;21070;-60
2021/10/17 07:48:30;;;;;;;5.47;4.97;;;;;;;17.72;44.90;100117.75;1785831;79;21050;-62
2021/10/17 07:50:57;;;;;;;5.92;5.33;;;;;;;17.76;44.84;100122.20;1832055;77;21061;-62
2021/10/17 07:53:25;;;;;;;5.72;5.12;;;;;;;17.78;44.80;100118.27;1831828;78;21006;-60
2021/10/17 07:55:54;;;;;;;5.08;4.22;;;;;;;17.82;44.79;100115.99;1820429;77;21030;-61
2021/10/17 07:58:21;;;;;;;5.65;4.72;;;;;;;17.84;44.76;100112.09;1835285;78;21205;-62
2021/10/17 08:00:49;;;;;;;5.05;4.55;;;;;;;17.88;44.75;100117.35;1823712;78;21013;-60
2021/10/17 08:03:34;;;;;;;8.50;6.00;;;;;;;17.92;44.82;100115.61;1825425;78;21043;-60
2021/10/17 08:06:12;;;;;;;6.67;5.40;;;;;;;17.95;44.81;100109.83;1810369;77;21075;-61
2021/10/17 08:08:40;;;;;;;5.00;4.15;;;;;;;17.98;44.80;100111.59;1832385;77;21027;-62
2021/10/17 08:11:07;;;;;;;5.85;4.87;;;;;;;18.01;44.78;100111.69;1830632;78;21035;-60
2021/10/17 08:13:35;;;;;;;5.90;4.72;;;;;;;18.05;44.76;100118.30;1831592;78;21053;-61
2021/10/17 08:16:02;;;;;;;5.85;5.12;;;;;;;18.08;44.77;100109.83;1831096;77;21021;-61
2021/10/17 08:18:30;;;;;;;5.33;4.83;;;;;;;18.11;44.77;100116.64;1835699;77;21548;-60
2021/10/17 08:20:58;;;;;;;5.92;5.20;;;;;;;18.15;44.76;100107.94;1843501;77;21245;-61
2021/10/17 08:23:25;;;;;;;5.15;4.35;;;;;;;18.20;44.76;100111.36;1831235;77;23150;-61
2021/10/17 08:25:52;;;;;;;6.92;4.37;;;;;;;18.23;44.71;100110.92;1842572;77;21529;-62
2021/10/17 08:28:19;;;;;;;5.45;4.92;;;;;;;18.27;44.63;100110.31;1828572;77;21166;-61
2021/10/17 08:30:48;;;;;;;5.28;4.60;;;;;;;18.33;44.65;100110.00;1841946;76;21065;-61
2021/10/17 08:33:15;;;;;;;5.00;4.47;;;;;;;18.37;44.67;100106.34;1852848;76;21593;-60
2021/10/17 08:35:43;;;;;;;5.80;4.95;;;;;;;18.41;44.61;100107.08;1854339;77;21768;-60
2021/10/17 08:38:11;;;;;;;5.05;4.55;;;;;;;18.48;44.54;100105.70;1849927;76;21021;-61
2021/10/17 08:42:14;;;;;;;4.70;4.28;;;;;;;18.59;44.46;100098.85;1880880;75;22366;-60
2021/10/17 08:44:42;;;;;;;5.10;4.60;;;;;;;18.59;44.48;100099.67;1834299;77;20992;-62
2021/10/17 08:47:11;;;;;;;5.30;4.80;;;;;;;18.66;44.35;100100.48;1827423;77;21197;-60
2021/10/17 08:49:41;;;;;;;5.22;4.28;;;;;;;18.73;44.30;100095.59;1820635;77;20938;-61
2021/10/17 08:52:10;;;;;;;5.55;4.33;;;;;;;18.78;44.29;100099.30;1816674;77;21025;-61
2021/10/17 08:54:39;;;;;;;5.28;4.55;;;;;;;18.85;44.36;100104.17;1847876;77;21444;-61
2021/10/17 08:57:06;;;;;;;4.85;4.35;;;;;;;18.93;44.33;100105.80;1824993;77;21526;-61
2021/10/17 08:59:34;;;;;;;5.25;4.50;;;;;;;19.00;44.35;100099.02;1828067;77;21789;-62
2021/10/17 09:02:14;;;;;;;5.80;4.37;;;;;;;19.08;44.17;100097.95;1825392;78;20951;-63
2021/10/17 09:04:42;;;;;;;4.58;4.17;;;;;;;19.15;44.09;100100.09;1829177;77;21122;-61
2021/10/17 09:07:21;;;;;;;5.90;4.00;;;;;;;19.21;43.95;100099.22;1840537;77;21067;-60
2021/10/17 09:10:13;;;;;;;4.80;4.30;;;;;;;19.24;43.81;100094.77;1826083;77;21010;-60
2021/10/17 09:12:47;;;;;;;4.70;4.20;;;;;;;19.27;43.91;100103.73;1821987;77;21485;-62
2021/10/17 09:15:27;;;;;;;5.17;4.35;;;;;;;19.28;43.88;100108.59;1803443;77;22099;-60
2021/10/17 09:18:08;;;;;;;5.33;4.67;;;;;;;19.28;43.95;100110.80;1819699;77;23999;-61
2021/10/17 09:20:53;;;;;;;4.70;4.17;;;;;;;19.29;43.91;100105.70;1793974;78;21011;-61
2021/10/17 09:23:27;;;;;;;4.42;3.95;;;;;;;19.30;43.83;100107.89;1815605;77;21536;-60
2021/10/17 09:25:56;;;;;;;4.15;3.65;;;;;;;19.28;43.75;100106.75;1824805;77;21193;-61
2021/10/17 09:28:29;;;;;;;5.05;4.55;;;;;;;19.29;43.71;100100.84;1819881;77;21138;-61
2021/10/17 09:31:11;;;;;;;4.25;3.85;;;;;;;19.30;43.67;100103.84;1827148;77;21568;-62
2021/10/17 09:33:53;;;;;;;4.95;3.90;;;;;;;19.31;43.64;100097.41;1816337;77;21028;-60
2021/10/17 09:36:29;;;;;;;4.65;4.08;;;;;;;19.30;43.62;100095.23;1819985;77;21012;-61
2021/10/17 09:39:14;;;;;;;4.97;4.03;;;;;;;19.31;43.58;100095.53;1823176;77;21185;-61
2021/10/17 09:41:50;;;;;;;4.17;3.58;;;;;;;19.32;43.54;100090.46;1808000;78;21041;-61
2021/10/17 09:44:16;;;;;;;5.08;4.17;;;;;;;19.33;43.53;100089.92;1804999;77;21041;-60
2021/10/17 09:47:00;;;;;;;4.40;4.00;;;;;;;19.33;43.52;100084.02;1809590;77;21022;-62
2021/10/17 09:49:26;;;;;;;4.90;4.08;;;;;;;19.34;43.54;100086.20;1810318;77;21091;-61
2021/10/17 09:52:17;;;;;;;3.67;3.37;;;;;;;19.35;43.55;100087.31;1805970;78;21194;-60
2021/10/17 09:54:50;;;;;;;4.30;3.90;;;;;;;19.38;43.49;100077.98;1795508;78;20971;-63
2021/10/17 09:57:17;;;;;;;5.00;4.47;;;;;;;19.44;43.38;100085.20;1800036;78;21573;-60
2021/10/17 09:59:44;;;;;;;4.50;4.10;;;;;;;19.47;43.25;100084.77;1815890;77;21541;-61
2021/10/17 10:02:12;;;;;;;4.72;4.15;;;;;;;19.51;43.25;100082.44;1819861;77;21092;-62
2021/10/17 10:04:45;;;;;;;5.00;3.80;;;;;;;19.56;43.42;100089.36;1823151;77;21104;-61
2021/10/17 10:07:15;;;;;;;4.33;3.92;;;;;;;19.59;43.44;100084.36;1819026;77;21065;-61
2021/10/17 10:09:46;;;;;;;4.15;3.72;;;;;;;19.63;43.29;100076.67;1813904;77;21555;-60
2021/10/17 10:12:17;;;;;;;4.62;3.85;;;;;;;19.68;43.20;100083.55;1818584;77;21069;-61
2021/10/17 10:14:47;;;;;;;4.40;4.00;;;;;;;19.72;43.23;100078.58;1819612;77;21049;-62
2021/10/17 10:17:15;;;;;;;4.10;3.70;;;;;;;19.73;43.26;100079.72;1786259;78;21125;-60
2021/10/17 10:19:42;;;;;;;4.05;3.65;;;;;;;19.78;43.20;100077.20;1812538;77;21006;-61
2021/10/17 10:22:09;;;;;;;4.50;3.95;;;;;;;19.84;43.01;100080.35;1815044;78;21006;-60
2021/10/17 10:24:36;;;;;;;3.62;3.30;;;;;;;19.92;42.87;100075.73;1811518;78;21076;-61
2021/10/17 10:27:03;;;;;;;4.12;3.47;;;;;;;19.98;42.81;100081.05;1813784;77;21029;-61
2021/10/17 10:29:32;;;;;;;6.17;3.87;;;;;;;20.03;42.87;100076.36;1810915;77;21883;-61
2021/10/17 10:32:03;;;;;;;4.37;3.40;;;;;;;20.08;42.86;100079.73;1815456;78;21080;-62
2021/10/17 10:34:43;;;;;;;4.28;3.65;;;;;;;20.10;42.81;100083.02;1807816;78;20997;-61
2021/10/17 10:37:21;;;;;;;3.65;3.35;;;;;;;20.11;42.81;100077.92;1812314;78;21130;-62
2021/10/17 10:40:08;;;;;;;3.85;2.92;;;;;;;20.12;42.83;100072.30;1811591;78;21016;-62
2021/10/17 10:42:39;;;;;;;3.65;3.27;;;;;;;20.14;42.73;100071.56;1812051;77;21033;-60
2021/10/17 10:45:22;;;;;;;3.37;3.08;;;;;;;20.15;42.68;100071.88;1833259;77;21573;-61
2021/10/17 10:48:10;;;;;;;3.40;3.10;;;;;;;20.17;42.62;100077.87;1806081;77;21076;-60
2021/10/17 10:50:40;;;;;;;4.20;3.72;;;;;;;20.20;42.62;100073.89;1816654;77;21283;-61
2021/10/17 10:53:08;;;;;;;3.50;3.20;;;;;;;20.25;42.57;100067.84;1810350;77;21531;-62
2021/10/17 10:55:53;;;;;;;3.85;3.45;;;;;;;20.30;42.45;100067.48;1802821;78;21005;-61
2021/10/17 10:58:26;;;;;;;3.87;3.47;;;;;;;20.35;42.34;100071.66;1816796;77;21005;-61
2021/10/17 11:00:54;;;;;;;3.67;3.25;;;;;;;20.39;42.31;100070.16;1822692;77;21028;-62
2021/10/17 11:03:21;;;;;;;3.60;3.30;;;;;;;20.42;42.42;100072.95;1813782;77;20993;-60
2021/10/17 11:06:12;;;;;;;3.35;2.98;;;;;;;20.45;42.40;100071.66;1808109;78;21103;-62
2021/10/17 11:08:42;;;;;;;3.25;2.95;;;;;;;20.46;42.43;100069.28;1821039;78;21524;-60
2021/10/17 11:11:09;;;;;;;3.58;3.00;;;;;;;20.47;42.31;100062.81;1838370;77;21060;-61
2021/10/17 11:13:40;;;;;;;3.85;3.22;;;;;;;20.52;42.26;100056.23;1821862;77;21098;-60
2021/10/17 11:16:21;;;;;;;3.75;2.90;;;;;;;20.56;42.12;100048.79;1813658;77;21118;-61
2021/10/17 11:18:56;;;;;;;3.12;2.75;;;;;;;20.65;42.05;100052.55;1811959;77;21548;-61
2021/10/17 11:21:24;;;;;;;3.65;3.20;;;;;;;20.74;41.90;100052.55;1800462;78;21766;-61
2021/10/17 11:23:51;;;;;;;3.67;3.37;;;;;;;20.85;41.80;100035.58;1790186;78;21088;-61
2021/10/17 11:26:17;;;;;;;3.92;3.27;;;;;;;20.96;41.67;100033.99;1817918;77;21025;-61
2021/10/17 11:28:50;;;;;;;3.30;2.95;;;;;;;21.08;41.53;100036.73;1824988;77;21491;-62
2021/10/17 11:31:25;;;;;;;3.25;2.90;;;;;;;21.16;41.49;100030.45;1825555;77;21054;-60
2021/10/17 11:33:47;;;;;;;3.98;3.25;;;;;;;21.25;41.59;100030.12;1824346;77;21140;-61